Portada
METAR-TAF:

METAR-TAF

Aeropuertos :

Base de la Fuerza Aérea Eielson

Fairbanks Eielson, Alaska, Estados Unidos

latitud: 64-39N, longitud: 147-06W, altitud: 167 m

Observación

El informe se hizo hace 1 hora y 8 minutos, a las 04:55 UTC
Viento calma
Temperatura 12°C
Humedad 20%
Presión 1006 hPa
Visibilidad: 16.1 km
Cielo despejado

METAR: PAEI 210455Z AUTO 00000KT 10SM CLR 12/M10 A2970 RMK AO2 SLP063 T01211102 $

Hora: 22:03 (06:03 UTC)

Pronóstico

El informe se hizo hace 8 horas y 3 minutos, a las 22:00 UTC
Pronóstico válido del 20 a las 22 UTC al 22 a las 04 UTC
Viento 6 kt con dirección variable
Visibilidad 10 km o más
Cielo despejado

TAF: PAEI 202200Z 2022/2204 VRB06KT 9999 SKC QNH2963INS TX18/2100Z TNM03/2114Z

Observaciones y pronósticos meteorológicos de más de 4000 aeropuertos (mensajes METAR y TAF).

Los puntos amarillos y rojos representan las estaciones disponibles.

Ponga el ratón en el punto deseado para ver el nombre de la estación.

Haga clic para ver las observaciones y los pronósticos meteorológicos.

Para cambiar el mapa : haga clic en los botones verdes con una cruz de color negro para hacer un zoom, en el botón verde con un guión para alejar o en las flechas verdes para mapas adyacentes.


METAR-TAF: